Time;durP1;ratioP1;P1;durP2;ratioP2;P2;SDS_P1;SDS_P2;PMS_P1;PMS_P2;Temp;Humidity;BMP_temperature;BMP_pressure;BME280_temperature;BME280_humidity;BME280_pressure;Samples;Min_cycle;Max_cycle;Signal;HPM_P1;HPM_P2
2023/09/03 00:01:39;;;;;;;24.17;23.27;;;19.50;99.90;;;;;;5093953;28;20275;-65
2023/09/03 00:04:06;;;;;;;23.85;23.00;;;19.40;99.90;;;;;;5093886;28;20199;-64
2023/09/03 00:06:33;;;;;;;32.63;31.38;;;19.40;99.90;;;;;;5094287;28;20217;-64
2023/09/03 00:09:00;;;;;;;25.80;24.80;;;19.40;99.90;;;;;;5093868;28;20745;-64
2023/09/03 00:11:27;;;;;;;26.40;25.50;;;19.40;99.90;;;;;;5093663;28;20299;-64
2023/09/03 00:13:54;;;;;;;27.93;26.97;;;19.30;99.90;;;;;;5094205;28;20209;-62
2023/09/03 00:16:20;;;;;;;25.55;24.55;;;19.30;99.90;;;;;;5093926;28;20301;-62
2023/09/03 00:18:49;;;;;;;24.15;23.25;;;19.30;99.90;;;;;;5093513;28;20257;-65
2023/09/03 00:21:15;;;;;;;24.03;23.23;;;19.30;99.90;;;;;;5093658;28;20670;-66
2023/09/03 00:23:42;;;;;;;23.55;22.75;;;19.30;99.90;;;;;;5093863;28;20222;-64
2023/09/03 00:26:16;;;;;;;27.42;26.48;;;19.20;99.90;;;;;;5094118;28;20205;-65
2023/09/03 00:28:43;;;;;;;25.67;24.77;;;19.20;99.90;;;;;;5094079;28;20229;-65
2023/09/03 00:31:10;;;;;;;25.97;25.07;;;19.10;99.90;;;;;;5094295;28;20232;-65
2023/09/03 00:33:38;;;;;;;29.45;28.45;;;19.10;99.90;;;;;;5094913;28;20289;-64
2023/09/03 00:36:09;;;;;;;27.38;26.40;;;19.00;99.90;;;;;;5094918;28;20289;-65
2023/09/03 00:38:36;;;;;;;26.15;25.25;;;19.00;99.90;;;;;;5093344;28;20710;-62
2023/09/03 00:41:04;;;;;;;25.02;24.13;;;19.10;99.90;;;;;;5093406;28;20632;-65
2023/09/03 00:43:31;;;;;;;26.35;25.45;;;19.00;99.90;;;;;;5094408;28;20230;-62
2023/09/03 00:46:02;;;;;;;26.48;25.48;;;19.00;99.90;;;;;;5094887;28;20551;-65
2023/09/03 00:48:29;;;;;;;27.45;26.50;;;18.90;99.90;;;;;;5094028;28;20226;-63
2023/09/03 00:51:00;;;;;;;40.07;38.00;;;18.90;99.90;;;;;;5093067;28;20662;-66
2023/09/03 00:53:30;;;;;;;25.35;24.48;;;18.80;99.90;;;;;;5093453;28;20199;-66
2023/09/03 00:55:57;;;;;;;30.27;29.20;;;18.90;99.90;;;;;;5093242;28;20207;-64
2023/09/03 00:58:24;;;;;;;31.57;30.47;;;18.80;99.90;;;;;;5093202;28;20648;-66
2023/09/03 01:00:52;;;;;;;28.05;27.08;;;18.70;99.90;;;;;;5093068;28;20225;-65
2023/09/03 01:03:19;;;;;;;33.13;31.98;;;18.60;99.90;;;;;;5092307;28;20289;-66
2023/09/03 01:05:46;;;;;;;26.63;25.65;;;18.60;99.90;;;;;;5092944;28;20199;-63
2023/09/03 01:08:13;;;;;;;27.08;26.08;;;18.50;99.90;;;;;;5092948;28;20258;-64
2023/09/03 01:10:51;;;;;;;28.05;27.05;;;18.50;99.90;;;;;;5092479;28;20577;-66
2023/09/03 01:13:25;;;;;;;28.13;27.13;;;18.50;99.90;;;;;;5092477;28;20193;-66
2023/09/03 01:15:54;;;;;;;24.27;23.37;;;18.50;99.90;;;;;;5092461;28;20202;-66
2023/09/03 01:18:23;;;;;;;24.42;23.52;;;18.50;99.90;;;;;;5091757;28;20744;-65
2023/09/03 01:21:17;;;;;;;26.67;25.67;;;18.50;99.90;;;;;;5092586;28;20601;-65
2023/09/03 01:23:51;;;;;;;28.90;27.90;;;18.50;99.90;;;;;;5092345;28;20210;-66
2023/09/03 01:26:39;;;;;;;29.80;28.60;;;18.50;99.90;;;;;;5092304;28;20717;-66
2023/09/03 01:29:08;;;;;;;26.98;26.02;;;18.60;99.90;;;;;;5091815;28;20313;-66
2023/09/03 01:31:41;;;;;;;29.05;28.05;;;18.50;99.90;;;;;;5091938;28;20198;-65
2023/09/03 01:34:07;;;;;;;23.97;23.17;;;18.60;99.90;;;;;;5091318;28;20213;-66
2023/09/03 01:36:35;;;;;;;24.90;24.05;;;18.60;99.90;;;;;;5091978;28;20708;-66
2023/09/03 01:39:03;;;;;;;32.83;31.65;;;18.60;99.90;;;;;;5092135;28;20309;-66
2023/09/03 01:41:32;;;;;;;27.92;26.92;;;18.60;99.90;;;;;;5091645;28;20219;-66
2023/09/03 01:43:58;;;;;;;31.42;30.33;;;18.70;99.90;;;;;;5091613;28;20205;-66
2023/09/03 01:46:37;;;;;;;29.00;27.88;;;18.70;99.90;;;;;;5092110;28;20289;-65
2023/09/03 01:49:15;;;;;;;26.45;25.55;;;18.70;99.90;;;;;;5091722;28;20222;-65
2023/09/03 01:51:50;;;;;;;27.02;26.02;;;18.70;99.90;;;;;;5091736;28;20293;-66
2023/09/03 01:54:22;;;;;;;26.63;25.73;;;18.70;99.90;;;;;;5093112;28;20733;-64
2023/09/03 01:56:57;;;;;;;28.90;27.90;;;18.70;99.90;;;;;;5092093;28;20243;-66
2023/09/03 01:59:30;;;;;;;26.30;25.30;;;18.70;99.90;;;;;;5091828;28;20206;-66
2023/09/03 02:02:00;;;;;;;26.23;25.33;;;18.80;99.90;;;;;;5091933;28;20206;-66
2023/09/03 02:04:26;;;;;;;27.17;26.20;;;18.90;99.90;;;;;;5091417;28;20204;-66
2023/09/03 02:06:53;;;;;;;27.13;26.20;;;18.80;99.90;;;;;;5091341;28;20203;-66
2023/09/03 02:09:20;;;;;;;23.10;22.30;;;18.90;99.90;;;;;;5091950;28;20222;-66
2023/09/03 02:11:47;;;;;;;21.17;20.40;;;18.90;99.90;;;;;;5091321;28;20205;-66
2023/09/03 02:14:14;;;;;;;27.88;26.88;;;18.80;99.90;;;;;;5091646;28;20202;-64
2023/09/03 02:16:40;;;;;;;22.05;21.25;;;18.70;99.90;;;;;;5091547;28;20206;-66
2023/09/03 02:19:08;;;;;;;26.30;25.40;;;18.70;99.90;;;;;;5114571;22;20244;-62
2023/09/03 02:21:35;;;;;;;21.40;20.67;;;18.60;99.90;;;;;;5110748;28;20221;-63
2023/09/03 02:24:02;;;;;;;30.65;29.55;;;18.50;99.90;;;;;;5112829;28;20202;-63
2023/09/03 02:26:29;;;;;;;26.48;25.58;;;18.50;99.90;;;;;;5113191;28;20237;-63
2023/09/03 02:28:56;;;;;;;28.77;27.73;;;18.40;99.90;;;;;;5112841;28;20230;-62
2023/09/03 02:31:23;;;;;;;28.38;27.38;;;18.40;99.90;;;;;;5116718;28;20198;-62
2023/09/03 02:33:49;;;;;;;23.15;22.35;;;18.30;99.90;;;;;;5113531;28;20206;-62
2023/09/03 02:36:17;;;;;;;24.77;23.77;;;18.40;99.90;;;;;;5113330;28;20237;-61
2023/09/03 02:38:45;;;;;;;24.98;24.08;;;18.40;99.90;;;;;;5112201;28;20225;-63
2023/09/03 02:41:12;;;;;;;29.15;28.10;;;18.40;99.90;;;;;;5112195;28;20662;-63
2023/09/03 02:43:38;;;;;;;27.40;26.42;;;18.40;99.90;;;;;;5112935;28;20229;-63
2023/09/03 02:46:05;;;;;;;25.07;24.20;;;18.40;99.90;;;;;;5113058;28;20225;-62
2023/09/03 02:48:32;;;;;;;25.65;24.77;;;18.30;99.90;;;;;;5112868;28;20235;-62
2023/09/03 02:51:01;;;;;;;27.83;26.83;;;18.30;99.90;;;;;;5113924;28;20684;-63
2023/09/03 02:53:29;;;;;;;28.10;27.13;;;18.30;99.90;;;;;;5112765;28;20300;-64
2023/09/03 02:55:58;;;;;;;24.60;23.77;;;18.30;99.90;;;;;;5112371;28;20201;-63
2023/09/03 02:58:25;;;;;;;24.65;23.80;;;18.30;99.90;;;;;;5112250;28;20224;-63
2023/09/03 03:00:52;;;;;;;28.53;27.53;;;18.30;99.90;;;;;;5116099;28;20605;-63
2023/09/03 03:03:19;;;;;;;23.42;22.60;;;18.20;99.90;;;;;;5116388;28;20297;-62
2023/09/03 03:05:46;;;;;;;22.30;21.53;;;18.20;99.90;;;;;;5117156;28;20202;-63
2023/09/03 03:08:13;;;;;;;24.48;23.63;;;18.20;99.90;;;;;;5117652;28;20390;-61
2023/09/03 03:10:41;;;;;;;24.52;23.65;;;18.20;99.90;;;;;;5119268;28;20202;-61
2023/09/03 03:13:08;;;;;;;23.50;22.67;;;18.20;99.90;;;;;;5117078;28;20198;-63
2023/09/03 03:15:35;;;;;;;24.15;23.33;;;18.20;99.90;;;;;;5117647;28;20212;-63
2023/09/03 03:18:02;;;;;;;24.23;23.33;;;18.20;99.90;;;;;;5117200;28;20204;-64
2023/09/03 03:20:29;;;;;;;23.27;22.45;;;18.20;99.90;;;;;;5120085;28;20790;-62
2023/09/03 03:22:56;;;;;;;26.05;25.13;;;18.20;99.90;;;;;;5122473;28;20202;-63
2023/09/03 03:25:23;;;;;;;26.67;25.75;;;18.20;99.90;;;;;;5122421;28;20198;-62
2023/09/03 03:27:51;;;;;;;27.70;26.73;;;18.10;99.90;;;;;;5116615;28;20206;-62
2023/09/03 03:30:18;;;;;;;30.30;29.23;;;18.10;99.90;;;;;;5116192;28;20218;-63
2023/09/03 03:32:45;;;;;;;29.00;27.98;;;18.00;99.90;;;;;;5116170;28;20830;-64
2023/09/03 03:35:11;;;;;;;34.55;33.30;;;17.90;99.90;;;;;;5116619;28;20206;-64
2023/09/03 03:37:38;;;;;;;30.70;29.63;;;17.90;99.90;;;;;;5115594;28;20674;-63
2023/09/03 03:40:06;;;;;;;57.67;55.17;;;17.90;99.90;;;;;;5115820;28;20228;-62
2023/09/03 03:42:33;;;;;;;54.85;52.55;;;18.00;99.90;;;;;;5115485;28;20214;-61
2023/09/03 03:45:01;;;;;;;37.25;35.95;;;18.00;99.90;;;;;;5115630;28;20198;-63
2023/09/03 03:47:28;;;;;;;43.70;42.17;;;18.00;99.90;;;;;;5115729;28;20267;-63
2023/09/03 03:49:55;;;;;;;34.63;33.38;;;18.00;99.90;;;;;;5115706;28;20220;-62
2023/09/03 03:52:22;;;;;;;39.27;37.90;;;18.00;99.90;;;;;;5116208;28;20255;-64
2023/09/03 03:54:50;;;;;;;32.43;31.27;;;18.00;99.90;;;;;;5115413;28;20296;-63
2023/09/03 03:57:17;;;;;;;28.90;27.88;;;17.90;99.90;;;;;;5115240;28;20618;-64
2023/09/03 03:59:44;;;;;;;34.97;33.73;;;17.90;99.90;;;;;;5115570;28;20313;-63
2023/09/03 04:02:12;;;;;;;38.43;37.10;;;17.90;99.90;;;;;;5115057;28;20229;-62
2023/09/03 04:04:39;;;;;;;25.17;24.30;;;17.90;99.90;;;;;;5117355;28;20202;-63
2023/09/03 04:07:06;;;;;;;30.25;29.15;;;17.90;99.90;;;;;;5115882;28;20202;-63
2023/09/03 04:09:35;;;;;;;33.50;32.33;;;17.90;99.90;;;;;;5118878;28;20226;-63
2023/09/03 04:12:02;;;;;;;26.03;25.10;;;17.80;99.90;;;;;;5119112;28;20615;-63
2023/09/03 04:14:29;;;;;;;32.30;31.15;;;17.80;99.90;;;;;;5119128;28;20687;-62
2023/09/03 04:16:56;;;;;;;25.67;24.77;;;17.90;99.90;;;;;;5115062;28;20212;-62
2023/09/03 04:19:24;;;;;;;29.43;28.43;;;18.00;99.90;;;;;;5115283;28;20239;-61
2023/09/03 04:21:51;;;;;;;30.07;29.00;;;18.00;99.90;;;;;;5114826;27;20229;-63
2023/09/03 04:24:18;;;;;;;26.88;25.92;;;18.10;99.90;;;;;;5114799;28;20202;-63
2023/09/03 04:26:45;;;;;;;22.77;21.98;;;18.10;99.90;;;;;;5114739;28;20576;-63
2023/09/03 04:29:12;;;;;;;25.38;24.50;;;18.10;99.90;;;;;;5115048;28;20295;-63
2023/09/03 04:31:40;;;;;;;23.98;23.13;;;18.10;99.90;;;;;;5114260;28;20212;-63
2023/09/03 04:34:07;;;;;;;21.38;20.63;;;18.10;99.90;;;;;;5114192;28;20206;-63
2023/09/03 04:36:35;;;;;;;23.73;22.83;;;18.10;99.90;;;;;;5114493;28;20218;-64
2023/09/03 04:39:03;;;;;;;23.23;22.42;;;18.10;99.90;;;;;;5114191;28;20597;-62
2023/09/03 04:41:30;;;;;;;22.37;21.57;;;18.10;99.90;;;;;;5113853;28;20258;-62
2023/09/03 04:44:07;;;;;;;22.90;22.13;;;18.10;99.90;;;;;;5114638;28;20255;-62
2023/09/03 04:46:34;;;;;;;18.45;17.75;;;18.10;99.90;;;;;;5113866;27;20212;-63
2023/09/03 04:49:01;;;;;;;21.27;20.57;;;18.10;99.90;;;;;;5114141;28;20210;-62
2023/09/03 04:51:28;;;;;;;22.75;21.98;;;18.10;99.90;;;;;;5113967;28;20296;-63
2023/09/03 04:53:56;;;;;;;18.90;18.25;;;18.10;99.90;;;;;;5114153;28;20306;-64
2023/09/03 04:56:23;;;;;;;23.03;22.23;;;18.10;99.90;;;;;;5113864;28;20293;-62
2023/09/03 04:58:50;;;;;;;20.50;19.80;;;18.10;99.90;;;;;;5112817;28;20226;-63
2023/09/03 05:01:18;;;;;;;25.13;24.23;;;18.10;99.90;;;;;;5113871;28;20224;-62
2023/09/03 05:03:45;;;;;;;22.40;21.63;;;18.10;99.90;;;;;;5113576;28;20208;-62
2023/09/03 05:06:16;;;;;;;19.10;18.47;;;18.20;99.90;;;;;;5113574;28;20233;-61
2023/09/03 05:08:44;;;;;;;20.63;19.93;;;18.20;99.90;;;;;;5113068;28;20218;-63
2023/09/03 05:11:13;;;;;;;21.33;20.63;;;18.30;99.90;;;;;;5114286;28;20410;-62
2023/09/03 05:13:40;;;;;;;19.93;19.23;;;18.30;99.90;;;;;;5114569;28;20205;-63
2023/09/03 05:16:07;;;;;;;20.73;20.03;;;18.30;99.90;;;;;;5113608;28;20556;-64
2023/09/03 05:18:35;;;;;;;20.33;19.63;;;18.30;99.90;;;;;;5113061;28;20333;-62
2023/09/03 05:21:07;;;;;;;20.27;19.60;;;18.30;99.90;;;;;;5113249;28;20230;-62
2023/09/03 05:23:34;;;;;;;19.63;18.97;;;18.30;99.90;;;;;;5112715;28;20301;-62
2023/09/03 05:26:01;;;;;;;18.73;18.07;;;18.30;99.90;;;;;;5114189;28;20217;-63
2023/09/03 05:28:29;;;;;;;19.83;19.13;;;18.30;99.90;;;;;;5112621;28;20225;-62
2023/09/03 05:30:55;;;;;;;26.07;25.10;;;18.30;99.90;;;;;;5116765;28;20216;-62
2023/09/03 05:33:22;;;;;;;23.30;22.53;;;18.30;99.90;;;;;;5114201;28;20198;-63
2023/09/03 05:35:49;;;;;;;21.75;21.00;;;18.30;99.90;;;;;;5113547;28;20997;-62
2023/09/03 05:38:16;;;;;;;20.23;19.53;;;18.20;99.90;;;;;;5112219;28;20210;-65
2023/09/03 05:40:42;;;;;;;22.30;21.50;;;18.30;99.90;;;;;;5112334;28;20202;-64
2023/09/03 05:43:09;;;;;;;22.10;21.33;;;18.20;99.90;;;;;;5113154;28;20216;-63
2023/09/03 05:45:44;;;;;;;23.08;22.23;;;18.20;99.90;;;;;;5114191;28;20216;-63
2023/09/03 05:48:11;;;;;;;26.55;25.65;;;18.20;99.90;;;;;;5113304;28;20221;-62
2023/09/03 05:50:38;;;;;;;21.48;20.73;;;18.20;99.90;;;;;;5112380;28;20197;-63
2023/09/03 05:53:05;;;;;;;23.40;22.55;;;18.20;99.90;;;;;;5112674;28;20205;-61
2023/09/03 05:55:32;;;;;;;23.13;22.25;;;18.10;99.90;;;;;;5113274;28;20198;-62
2023/09/03 05:57:59;;;;;;;21.02;20.27;;;18.20;99.90;;;;;;5113287;28;20258;-63
2023/09/03 06:00:26;;;;;;;21.67;20.88;;;18.20;99.90;;;;;;5113191;28;20212;-62
2023/09/03 06:02:54;;;;;;;26.17;25.25;;;18.20;99.90;;;;;;5111511;28;20308;-64
2023/09/03 06:05:21;;;;;;;21.77;21.00;;;18.30;99.90;;;;;;5112443;28;20643;-62
2023/09/03 06:07:47;;;;;;;23.93;23.07;;;18.40;99.90;;;;;;5113099;28;20212;-61
2023/09/03 06:10:14;;;;;;;21.67;20.90;;;18.50;99.90;;;;;;5112694;28;20217;-62
2023/09/03 06:12:41;;;;;;;24.08;23.20;;;18.60;99.90;;;;;;5111805;28;20206;-62
2023/09/03 06:15:09;;;;;;;20.67;19.97;;;18.70;99.90;;;;;;5112322;28;20569;-63
2023/09/03 06:17:35;;;;;;;19.77;19.08;;;18.80;99.90;;;;;;5112944;28;20783;-63
2023/09/03 06:20:04;;;;;;;21.25;20.50;;;18.90;99.90;;;;;;5112995;28;20226;-63
2023/09/03 06:22:31;;;;;;;19.73;19.03;;;19.00;99.90;;;;;;5114265;28;20232;-63
2023/09/03 06:24:58;;;;;;;21.73;21.00;;;19.00;99.90;;;;;;5112056;28;20202;-62
2023/09/03 06:27:25;;;;;;;14.23;13.73;;;19.00;99.90;;;;;;5111882;28;20212;-62
2023/09/03 06:29:51;;;;;;;20.63;19.93;;;19.00;99.90;;;;;;5111150;28;20229;-62
2023/09/03 06:32:18;;;;;;;19.97;19.23;;;19.00;99.90;;;;;;5115830;28;20211;-64
2023/09/03 06:34:45;;;;;;;17.60;17.00;;;19.10;99.90;;;;;;5120198;28;20208;-62
2023/09/03 06:37:13;;;;;;;19.08;18.40;;;19.20;99.90;;;;;;5114290;28;20379;-63
2023/09/03 06:39:41;;;;;;;19.27;18.60;;;19.30;99.90;;;;;;5113391;28;20244;-63
2023/09/03 06:42:08;;;;;;;18.52;17.90;;;19.40;99.90;;;;;;5111003;28;20221;-63
2023/09/03 06:44:35;;;;;;;17.17;16.58;;;19.40;99.90;;;;;;5111011;28;20257;-63
2023/09/03 06:47:02;;;;;;;17.52;16.80;;;19.40;99.90;;;;;;5111192;28;20216;-63
2023/09/03 06:49:29;;;;;;;17.35;16.77;;;19.60;99.90;;;;;;5111083;28;20602;-62
2023/09/03 06:51:56;;;;;;;19.20;18.50;;;19.70;99.90;;;;;;5110185;28;20602;-62
2023/09/03 06:54:24;;;;;;;15.88;15.38;;;19.80;99.90;;;;;;5110958;28;20293;-63
2023/09/03 06:56:51;;;;;;;15.65;15.07;;;19.90;99.90;;;;;;5111014;28;20206;-62
2023/09/03 06:59:22;;;;;;;15.73;15.23;;;20.00;99.90;;;;;;5111053;28;20218;-62
2023/09/03 07:01:49;;;;;;;15.48;14.95;;;20.10;99.90;;;;;;5110685;28;20209;-62
2023/09/03 07:04:16;;;;;;;14.43;13.87;;;20.20;99.90;;;;;;5110468;28;20202;-62
2023/09/03 07:06:43;;;;;;;13.65;13.18;;;20.30;99.90;;;;;;5110903;28;20527;-62
2023/09/03 07:09:10;;;;;;;14.75;14.25;;;20.40;99.90;;;;;;5110717;28;20232;-62
2023/09/03 07:11:39;;;;;;;14.30;13.80;;;20.50;99.90;;;;;;5110182;28;20649;-62
2023/09/03 07:14:05;;;;;;;15.20;14.70;;;20.60;99.90;;;;;;5110727;28;20232;-63
2023/09/03 07:16:32;;;;;;;12.60;12.20;;;20.70;99.90;;;;;;5110727;28;20266;-62
2023/09/03 07:18:59;;;;;;;13.60;13.10;;;20.80;99.90;;;;;;5110435;28;20234;-62
2023/09/03 07:21:26;;;;;;;13.80;13.30;;;20.80;99.90;;;;;;5110001;28;20229;-61
2023/09/03 07:23:54;;;;;;;13.20;12.70;;;20.90;99.90;;;;;;5110832;28;20206;-63
2023/09/03 07:26:21;;;;;;;14.85;14.23;;;20.90;99.90;;;;;;5110623;28;20282;-63
2023/09/03 07:28:49;;;;;;;13.57;13.07;;;20.90;99.90;;;;;;5110583;28;20230;-61
2023/09/03 07:31:16;;;;;;;13.70;13.20;;;20.90;99.90;;;;;;5110470;28;20202;-62
2023/09/03 07:33:44;;;;;;;14.30;13.70;;;21.00;99.90;;;;;;5110792;28;20202;-62
2023/09/03 07:36:12;;;;;;;17.17;16.55;;;21.10;99.90;;;;;;5110746;28;20206;-62
2023/09/03 07:38:39;;;;;;;16.10;15.50;;;21.20;99.90;;;;;;5110975;28;20222;-62
2023/09/03 07:41:06;;;;;;;18.80;18.17;;;21.20;99.90;;;;;;5112873;28;20210;-62
2023/09/03 07:43:33;;;;;;;19.70;19.02;;;21.10;99.90;;;;;;5111019;28;20212;-62
2023/09/03 07:46:01;;;;;;;20.70;19.95;;;21.10;99.90;;;;;;5111108;28;20206;-61
2023/09/03 07:48:28;;;;;;;20.08;19.38;;;21.10;99.90;;;;;;5114673;28;20233;-62
2023/09/03 07:50:55;;;;;;;19.42;18.75;;;21.20;99.90;;;;;;5112762;27;20206;-61
2023/09/03 07:53:21;;;;;;;17.27;16.67;;;21.20;99.90;;;;;;5105404;28;20198;-62
2023/09/03 07:55:48;;;;;;;17.65;17.05;;;21.20;99.90;;;;;;5114548;28;20208;-61
2023/09/03 07:58:15;;;;;;;15.77;15.23;;;21.20;99.90;;;;;;5114058;28;20205;-62
2023/09/03 08:00:42;;;;;;;14.50;14.00;;;21.20;99.90;;;;;;5114244;28;20209;-62
2023/09/03 08:03:10;;;;;;;17.90;17.27;;;21.20;99.90;;;;;;5113882;28;20275;-62
2023/09/03 08:05:37;;;;;;;21.90;21.13;;;21.30;99.90;;;;;;5113673;28;20673;-63
2023/09/03 08:08:04;;;;;;;15.73;15.20;;;21.40;99.90;;;;;;5113851;28;20317;-63
2023/09/03 08:10:31;;;;;;;20.17;19.42;;;21.50;99.90;;;;;;5114354;28;20706;-63
2023/09/03 08:12:58;;;;;;;17.27;16.67;;;21.40;99.90;;;;;;5116215;28;20202;-62
2023/09/03 08:15:24;;;;;;;23.90;23.05;;;21.40;99.90;;;;;;5116800;28;20296;-62
2023/09/03 08:17:51;;;;;;;17.08;16.48;;;21.30;99.90;;;;;;5117975;28;20589;-64
2023/09/03 08:20:21;;;;;;;16.60;16.00;;;21.30;99.90;;;;;;5138486;22;20229;-64
2023/09/03 08:22:48;;;;;;;20.00;19.30;;;21.30;99.90;;;;;;5069902;28;20738;-65
2023/09/03 08:25:15;;;;;;;15.73;15.18;;;21.40;99.90;;;;;;5064510;28;20199;-66
2023/09/03 08:27:43;;;;;;;19.25;18.58;;;21.50;99.90;;;;;;5064110;28;20200;-65
2023/09/03 08:30:11;;;;;;;14.63;14.13;;;21.60;99.90;;;;;;5065134;28;20314;-65
2023/09/03 08:32:37;;;;;;;21.58;20.77;;;21.80;99.90;;;;;;5065035;28;20219;-65
2023/09/03 08:35:06;;;;;;;17.88;17.20;;;21.90;99.90;;;;;;5064604;28;20294;-63
2023/09/03 08:37:34;;;;;;;17.63;17.02;;;22.00;99.90;;;;;;5064282;28;20233;-66
2023/09/03 08:40:01;;;;;;;18.75;18.05;;;22.10;99.90;;;;;;5063228;28;20219;-64
2023/09/03 08:42:31;;;;;;;17.17;16.58;;;22.10;99.90;;;;;;5062749;28;20709;-65
2023/09/03 08:45:03;;;;;;;20.42;19.55;;;22.20;99.90;;;;;;5063275;28;20203;-64
2023/09/03 08:47:31;;;;;;;17.80;17.20;;;22.30;99.90;;;;;;5057973;28;20199;-65
2023/09/03 08:49:59;;;;;;;16.48;15.88;;;22.30;99.90;;;;;;5056726;28;20220;-65
2023/09/03 08:52:27;;;;;;;17.35;16.75;;;22.40;99.90;;;;;;5066755;28;20196;-66
2023/09/03 08:54:56;;;;;;;17.30;16.70;;;22.50;99.90;;;;;;5066067;28;20652;-65
2023/09/03 08:57:28;;;;;;;19.98;19.27;;;22.70;99.90;;;;;;5073310;28;20578;-65
2023/09/03 08:59:56;;;;;;;18.80;18.13;;;22.90;99.90;;;;;;5062484;28;21509;-64
2023/09/03 09:02:23;;;;;;;17.45;16.85;;;23.00;99.90;;;;;;5063320;28;20223;-64
2023/09/03 09:04:50;;;;;;;17.40;16.80;;;23.20;99.90;;;;;;5067859;28;20199;-64
2023/09/03 09:07:19;;;;;;;17.85;17.25;;;23.30;99.90;;;;;;5064620;28;20750;-64
2023/09/03 09:09:48;;;;;;;18.67;18.05;;;23.30;99.90;;;;;;5062440;28;20230;-66
2023/09/03 09:12:22;;;;;;;17.23;16.63;;;23.50;99.90;;;;;;5061595;28;20209;-66
2023/09/03 09:14:54;;;;;;;16.23;15.63;;;23.60;99.90;;;;;;5063079;28;20196;-66
2023/09/03 09:17:21;;;;;;;16.83;16.23;;;23.80;99.90;;;;;;5060136;28;20196;-66
2023/09/03 09:19:48;;;;;;;16.15;15.57;;;23.90;99.90;;;;;;5061910;28;20719;-63
2023/09/03 09:22:14;;;;;;;14.93;14.32;;;24.00;99.90;;;;;;5062170;28;20211;-67
2023/09/03 09:24:42;;;;;;;14.93;14.43;;;24.00;99.90;;;;;;5062918;28;20659;-66
2023/09/03 09:27:14;;;;;;;15.43;14.88;;;24.10;99.90;;;;;;5063423;28;20207;-66
2023/09/03 09:29:42;;;;;;;14.35;13.85;;;24.20;99.90;;;;;;5062938;28;20657;-66
2023/09/03 09:32:18;;;;;;;15.05;14.55;;;24.20;99.90;;;;;;5063667;28;20198;-65
2023/09/03 09:34:45;;;;;;;14.82;14.32;;;24.20;99.90;;;;;;5061048;28;20195;-65
2023/09/03 09:37:12;;;;;;;14.20;13.70;;;24.30;99.90;;;;;;5062971;28;20698;-64
2023/09/03 09:39:44;;;;;;;14.88;14.27;;;24.30;99.90;;;;;;5062777;28;20231;-65
2023/09/03 09:42:12;;;;;;;15.40;14.90;;;24.30;99.90;;;;;;5061828;28;20221;-65
2023/09/03 09:44:55;;;;;;;15.80;15.20;;;24.60;99.90;;;;;;5062586;28;20210;-65
2023/09/03 09:47:22;;;;;;;16.35;15.75;;;24.80;99.90;;;;;;5072088;28;20377;-65
2023/09/03 09:49:49;;;;;;;16.95;16.35;;;24.80;99.90;;;;;;5071711;28;20227;-65
2023/09/03 09:52:17;;;;;;;70.57;67.45;;;24.90;99.90;;;;;;5071703;28;20204;-65
2023/09/03 09:54:44;;;;;;;15.95;15.35;;;25.00;99.90;;;;;;5071842;28;20207;-64
2023/09/03 09:57:12;;;;;;;15.27;14.77;;;25.10;99.90;;;;;;5072192;28;20206;-66
2023/09/03 09:59:40;;;;;;;16.30;15.70;;;25.10;99.90;;;;;;5071951;28;20313;-65
2023/09/03 10:02:15;;;;;;;16.10;15.50;;;25.20;99.90;;;;;;5071028;28;20207;-66
2023/09/03 10:04:43;;;;;;;16.15;15.55;;;25.30;99.90;;;;;;5071653;28;20217;-66
2023/09/03 10:07:10;;;;;;;15.90;15.30;;;25.50;99.90;;;;;;5071821;28;20203;-65
2023/09/03 10:09:37;;;;;;;16.38;15.77;;;25.50;99.90;;;;;;5071085;28;20233;-66
2023/09/03 10:12:05;;;;;;;16.58;15.98;;;25.70;99.90;;;;;;5070994;28;20206;-65
2023/09/03 10:14:31;;;;;;;15.07;14.57;;;25.70;99.90;;;;;;5071575;28;20207;-65
2023/09/03 10:17:01;;;;;;;15.85;15.25;;;25.80;99.90;;;;;;5071402;28;20203;-66
2023/09/03 10:19:40;;;;;;;18.65;17.95;;;25.90;99.90;;;;;;5071169;28;20226;-66
2023/09/03 10:22:10;;;;;;;16.27;15.68;;;26.00;99.90;;;;;;5071062;28;20774;-66
2023/09/03 10:24:37;;;;;;;32.53;31.08;;;26.00;99.90;;;;;;5071138;28;20207;-65
2023/09/03 10:27:07;;;;;;;16.10;15.50;;;26.00;99.90;;;;;;5071387;28;20205;-65
2023/09/03 10:29:36;;;;;;;15.63;15.02;;;26.00;99.90;;;;;;5071277;28;20223;-65
2023/09/03 10:32:05;;;;;;;15.85;15.30;;;26.00;99.90;;;;;;5071480;28;20203;-65
2023/09/03 10:34:36;;;;;;;41.63;39.47;;;26.10;99.90;;;;;;5071226;28;20843;-64
2023/09/03 10:37:04;;;;;;;15.43;14.93;;;26.10;99.90;;;;;;5071942;28;20203;-65
2023/09/03 10:39:31;;;;;;;16.23;15.52;;;26.00;99.90;;;;;;5072245;28;20240;-66
2023/09/03 10:42:27;;;;;;;15.25;14.75;;;25.90;99.90;;;;;;5071583;28;20203;-64
2023/09/03 10:44:55;;;;;;;20.23;19.33;;;26.00;99.90;;;;;;5072696;28;20203;-65
2023/09/03 10:47:22;;;;;;;15.55;14.95;;;26.10;99.90;;;;;;5071641;28;20207;-65
2023/09/03 10:49:51;;;;;;;17.90;17.20;;;26.30;99.90;;;;;;5071377;28;20226;-64
2023/09/03 10:52:40;;;;;;;15.38;14.82;;;26.50;99.90;;;;;;5070862;28;20211;-66
2023/09/03 10:55:17;;;;;;;16.38;15.77;;;26.60;99.90;;;;;;5071076;28;20188;-64
2023/09/03 10:57:45;;;;;;;17.27;16.67;;;26.70;99.90;;;;;;5071366;28;20222;-66
2023/09/03 11:00:15;;;;;;;17.65;17.00;;;26.70;99.90;;;;;;5071106;28;20706;-65
2023/09/03 11:02:44;;;;;;;19.73;19.02;;;26.80;99.90;;;;;;5061693;28;20207;-65
2023/09/03 11:05:13;;;;;;;16.60;16.00;;;26.70;99.90;;;;;;5070881;28;20217;-64
2023/09/03 11:07:40;;;;;;;17.30;16.70;;;26.60;99.90;;;;;;5070733;28;20690;-65
2023/09/03 11:10:41;;;;;;;17.27;16.67;;;26.70;99.90;;;;;;5071111;28;20234;-65
2023/09/03 11:13:12;;;;;;;16.55;15.95;;;27.00;99.90;;;;;;5066881;28;20203;-64
2023/09/03 11:15:48;;;;;;;17.20;16.60;;;27.00;99.90;;;;;;5051911;28;20668;-62
2023/09/03 11:18:19;;;;;;;17.42;16.83;;;27.10;99.90;;;;;;5051166;28;20264;-63
2023/09/03 11:20:48;;;;;;;19.63;18.92;;;27.30;99.90;;;;;;5050700;28;20232;-63
2023/09/03 11:23:15;;;;;;;17.02;16.42;;;27.20;99.90;;;;;;5054152;28;20314;-63
2023/09/03 11:25:42;;;;;;;16.70;16.10;;;27.30;99.90;;;;;;5054055;28;20315;-64
2023/09/03 11:28:12;;;;;;;18.13;17.42;;;27.50;99.90;;;;;;5054184;28;20586;-64
2023/09/03 11:30:40;;;;;;;16.52;15.93;;;27.50;99.90;;;;;;5055281;28;20224;-64
2023/09/03 11:33:08;;;;;;;18.88;18.17;;;27.70;99.90;;;;;;5056419;28;20426;-65
2023/09/03 11:35:44;;;;;;;21.50;20.63;;;27.50;99.90;;;;;;5054440;28;20208;-69
2023/09/03 11:38:12;;;;;;;17.48;16.80;;;27.40;99.90;;;;;;5054942;28;20299;-65
2023/09/03 11:40:40;;;;;;;18.40;17.70;;;27.50;99.90;;;;;;5053953;28;20723;-63
2023/09/03 11:43:09;;;;;;;17.80;17.15;;;27.60;99.90;;;;;;5053561;28;20232;-64
2023/09/03 11:45:37;;;;;;;17.48;16.88;;;27.60;99.90;;;;;;5053738;28;20215;-63
2023/09/03 11:48:07;;;;;;;17.08;16.48;;;27.60;99.90;;;;;;5053708;28;20208;-64
2023/09/03 11:50:35;;;;;;;22.33;21.48;;;27.80;99.90;;;;;;5053941;28;20297;-63
2023/09/03 11:53:04;;;;;;;18.25;17.55;;;27.90;99.90;;;;;;5053695;28;20269;-63
2023/09/03 11:55:36;;;;;;;18.85;18.15;;;27.90;99.90;;;;;;5053965;28;20291;-64
2023/09/03 11:58:05;;;;;;;17.75;17.13;;;27.80;99.90;;;;;;5053714;28;20211;-64
2023/09/03 12:00:32;;;;;;;34.90;33.30;;;27.70;99.90;;;;;;5053840;28;20327;-64
2023/09/03 12:03:00;;;;;;;16.45;15.85;;;27.60;99.90;;;;;;5053519;28;20604;-64
2023/09/03 12:05:28;;;;;;;16.77;16.17;;;27.60;99.90;;;;;;5054013;28;20208;-64
2023/09/03 12:08:00;;;;;;;18.75;18.05;;;27.60;99.90;;;;;;5053943;28;20204;-63
2023/09/03 12:10:27;;;;;;;19.83;19.02;;;27.70;99.90;;;;;;5053509;28;20230;-64
2023/09/03 12:12:55;;;;;;;16.23;15.63;;;27.70;99.90;;;;;;5053219;28;20196;-64
2023/09/03 12:15:24;;;;;;;17.67;17.00;;;27.70;99.90;;;;;;5053308;28;20698;-64
2023/09/03 12:17:51;;;;;;;15.52;14.95;;;27.80;99.90;;;;;;5053074;28;20237;-64
2023/09/03 12:20:38;;;;;;;21.20;20.40;;;27.90;99.90;;;;;;5053457;28;20236;-65
2023/09/03 12:23:10;;;;;;;25.65;24.55;;;27.90;99.90;;;;;;5053047;28;20721;-64
2023/09/03 12:25:37;;;;;;;16.70;16.10;;;27.90;99.90;;;;;;5054143;28;20238;-64
2023/09/03 12:28:06;;;;;;;17.52;16.88;;;27.80;99.90;;;;;;5054533;28;20211;-64
2023/09/03 12:30:55;;;;;;;16.88;16.27;;;27.90;99.90;;;;;;5054308;28;20254;-63
2023/09/03 12:33:23;;;;;;;17.92;17.30;;;27.90;99.90;;;;;;5053110;28;20204;-66
2023/09/03 12:36:06;;;;;;;20.95;20.15;;;27.90;99.90;;;;;;5056330;28;20214;-64